sensor_id;sensor_type;location;lat;lon;timestamp;P1;durP1;ratioP1;P2;durP2;ratioP2
53521;SDS011;39398;48.382;9.802;2023-05-16T00:04:59;10.52;;;8.35;;
53521;SDS011;39398;48.382;9.802;2023-05-16T00:10:01;13.40;;;8.80;;
53521;SDS011;39398;48.382;9.802;2023-05-16T00:15:08;13.30;;;9.90;;
53521;SDS011;39398;48.382;9.802;2023-05-16T00:20:11;15.77;;;9.70;;
53521;SDS011;39398;48.382;9.802;2023-05-16T00:25:13;14.20;;;10.00;;
53521;SDS011;39398;48.382;9.802;2023-05-16T00:30:16;15.30;;;11.13;;
53521;SDS011;39398;48.382;9.802;2023-05-16T00:35:18;15.02;;;11.10;;
53521;SDS011;39398;48.382;9.802;2023-05-16T00:40:19;14.35;;;9.73;;
53521;SDS011;39398;48.382;9.802;2023-05-16T00:45:22;16.63;;;11.02;;
53521;SDS011;39398;48.382;9.802;2023-05-16T00:50:24;16.85;;;9.88;;
53521;SDS011;39398;48.382;9.802;2023-05-16T00:55:29;14.60;;;8.93;;
53521;SDS011;39398;48.382;9.802;2023-05-16T01:00:32;18.23;;;12.15;;
53521;SDS011;39398;48.382;9.802;2023-05-16T01:05:35;19.95;;;13.25;;
53521;SDS011;39398;48.382;9.802;2023-05-16T01:10:38;19.88;;;11.77;;
53521;SDS011;39398;48.382;9.802;2023-05-16T01:15:54;22.80;;;14.07;;
53521;SDS011;39398;48.382;9.802;2023-05-16T01:21:01;22.60;;;14.63;;
53521;SDS011;39398;48.382;9.802;2023-05-16T01:26:12;24.67;;;15.02;;
53521;SDS011;39398;48.382;9.802;2023-05-16T01:31:18;26.10;;;15.73;;
53521;SDS011;39398;48.382;9.802;2023-05-16T01:41:54;27.85;;;17.52;;
53521;SDS011;39398;48.382;9.802;2023-05-16T01:47:05;26.05;;;16.48;;
53521;SDS011;39398;48.382;9.802;2023-05-16T01:52:13;26.85;;;16.67;;
53521;SDS011;39398;48.382;9.802;2023-05-16T01:57:23;32.92;;;18.52;;
53521;SDS011;39398;48.382;9.802;2023-05-16T02:02:27;26.38;;;16.92;;
53521;SDS011;39398;48.382;9.802;2023-05-16T02:07:29;29.65;;;18.67;;
53521;SDS011;39398;48.382;9.802;2023-05-16T02:12:32;28.38;;;18.35;;
53521;SDS011;39398;48.382;9.802;2023-05-16T02:17:33;30.50;;;18.80;;
53521;SDS011;39398;48.382;9.802;2023-05-16T02:22:35;26.35;;;13.88;;
53521;SDS011;39398;48.382;9.802;2023-05-16T02:27:52;30.02;;;17.70;;
53521;SDS011;39398;48.382;9.802;2023-05-16T02:32:54;28.08;;;17.73;;
53521;SDS011;39398;48.382;9.802;2023-05-16T02:37:58;31.35;;;19.17;;
53521;SDS011;39398;48.382;9.802;2023-05-16T02:43:03;39.50;;;23.10;;
53521;SDS011;39398;48.382;9.802;2023-05-16T02:48:05;34.40;;;20.48;;
53521;SDS011;39398;48.382;9.802;2023-05-16T02:53:06;35.13;;;22.45;;
53521;SDS011;39398;48.382;9.802;2023-05-16T02:58:12;37.15;;;22.50;;
53521;SDS011;39398;48.382;9.802;2023-05-16T03:03:20;39.42;;;22.17;;
53521;SDS011;39398;48.382;9.802;2023-05-16T03:08:22;35.95;;;22.45;;
53521;SDS011;39398;48.382;9.802;2023-05-16T03:13:25;28.05;;;14.70;;
53521;SDS011;39398;48.382;9.802;2023-05-16T03:18:27;43.42;;;24.75;;
53521;SDS011;39398;48.382;9.802;2023-05-16T03:23:28;35.78;;;18.95;;
53521;SDS011;39398;48.382;9.802;2023-05-16T03:28:31;52.33;;;27.77;;
53521;SDS011;39398;48.382;9.802;2023-05-16T03:33:33;47.55;;;26.70;;
53521;SDS011;39398;48.382;9.802;2023-05-16T03:38:34;47.00;;;26.77;;
53521;SDS011;39398;48.382;9.802;2023-05-16T03:43:38;50.08;;;28.08;;
53521;SDS011;39398;48.382;9.802;2023-05-16T03:48:39;39.75;;;25.48;;
53521;SDS011;39398;48.382;9.802;2023-05-16T03:53:41;43.47;;;26.05;;
53521;SDS011;39398;48.382;9.802;2023-05-16T03:58:44;42.47;;;25.17;;
53521;SDS011;39398;48.382;9.802;2023-05-16T04:03:45;46.67;;;25.73;;
53521;SDS011;39398;48.382;9.802;2023-05-16T04:08:47;55.20;;;28.92;;
53521;SDS011;39398;48.382;9.802;2023-05-16T04:13:50;56.40;;;30.23;;
53521;SDS011;39398;48.382;9.802;2023-05-16T04:18:51;51.15;;;27.17;;
53521;SDS011;39398;48.382;9.802;2023-05-16T04:23:53;57.92;;;28.52;;
53521;SDS011;39398;48.382;9.802;2023-05-16T04:28:56;47.85;;;24.98;;
53521;SDS011;39398;48.382;9.802;2023-05-16T04:34:00;36.20;;;20.80;;
53521;SDS011;39398;48.382;9.802;2023-05-16T04:39:01;60.97;;;30.50;;
53521;SDS011;39398;48.382;9.802;2023-05-16T04:44:05;52.38;;;26.63;;
53521;SDS011;39398;48.382;9.802;2023-05-16T04:49:06;44.30;;;21.73;;
53521;SDS011;39398;48.382;9.802;2023-05-16T04:54:08;35.90;;;19.38;;
53521;SDS011;39398;48.382;9.802;2023-05-16T04:59:11;52.38;;;26.85;;
53521;SDS011;39398;48.382;9.802;2023-05-16T05:04:12;40.38;;;19.90;;
53521;SDS011;39398;48.382;9.802;2023-05-16T05:09:14;29.38;;;15.43;;
53521;SDS011;39398;48.382;9.802;2023-05-16T05:14:17;52.42;;;28.60;;
53521;SDS011;39398;48.382;9.802;2023-05-16T05:19:19;47.35;;;25.67;;
53521;SDS011;39398;48.382;9.802;2023-05-16T05:24:20;36.05;;;17.20;;
53521;SDS011;39398;48.382;9.802;2023-05-16T05:29:23;35.05;;;18.00;;
53521;SDS011;39398;48.382;9.802;2023-05-16T05:34:25;40.63;;;18.90;;
53521;SDS011;39398;48.382;9.802;2023-05-16T05:39:27;46.45;;;25.83;;
53521;SDS011;39398;48.382;9.802;2023-05-16T05:44:29;41.53;;;21.73;;
53521;SDS011;39398;48.382;9.802;2023-05-16T05:49:31;41.50;;;23.73;;
53521;SDS011;39398;48.382;9.802;2023-05-16T05:54:33;35.75;;;23.05;;
53521;SDS011;39398;48.382;9.802;2023-05-16T05:59:36;30.25;;;15.13;;
53521;SDS011;39398;48.382;9.802;2023-05-16T06:04:38;26.13;;;14.38;;
53521;SDS011;39398;48.382;9.802;2023-05-16T06:09:39;32.92;;;19.33;;
53521;SDS011;39398;48.382;9.802;2023-05-16T06:14:42;37.35;;;22.92;;
53521;SDS011;39398;48.382;9.802;2023-05-16T06:19:44;41.13;;;24.17;;
53521;SDS011;39398;48.382;9.802;2023-05-16T06:24:45;38.20;;;20.90;;
53521;SDS011;39398;48.382;9.802;2023-05-16T06:29:48;40.17;;;24.17;;
53521;SDS011;39398;48.382;9.802;2023-05-16T06:34:50;52.78;;;28.80;;
53521;SDS011;39398;48.382;9.802;2023-05-16T06:39:51;37.15;;;22.27;;
53521;SDS011;39398;48.382;9.802;2023-05-16T06:44:54;37.60;;;21.85;;
53521;SDS011;39398;48.382;9.802;2023-05-16T06:49:56;41.25;;;22.40;;
53521;SDS011;39398;48.382;9.802;2023-05-16T06:54:58;42.55;;;27.35;;
53521;SDS011;39398;48.382;9.802;2023-05-16T07:00:01;46.55;;;28.45;;
53521;SDS011;39398;48.382;9.802;2023-05-16T07:05:02;42.17;;;28.85;;
53521;SDS011;39398;48.382;9.802;2023-05-16T07:10:05;39.35;;;26.73;;
53521;SDS011;39398;48.382;9.802;2023-05-16T07:15:09;37.03;;;24.50;;
53521;SDS011;39398;48.382;9.802;2023-05-16T07:20:11;32.75;;;21.65;;
53521;SDS011;39398;48.382;9.802;2023-05-16T07:25:12;30.23;;;21.95;;
53521;SDS011;39398;48.382;9.802;2023-05-16T07:30:15;36.70;;;25.67;;
53521;SDS011;39398;48.382;9.802;2023-05-16T07:35:17;40.15;;;24.65;;
53521;SDS011;39398;48.382;9.802;2023-05-16T07:40:19;31.20;;;21.05;;
53521;SDS011;39398;48.382;9.802;2023-05-16T07:45:22;30.90;;;19.52;;
53521;SDS011;39398;48.382;9.802;2023-05-16T07:50:24;37.10;;;24.40;;
53521;SDS011;39398;48.382;9.802;2023-05-16T07:55:25;35.25;;;25.23;;
53521;SDS011;39398;48.382;9.802;2023-05-16T08:00:29;34.35;;;21.75;;
53521;SDS011;39398;48.382;9.802;2023-05-16T08:05:30;32.90;;;24.25;;
53521;SDS011;39398;48.382;9.802;2023-05-16T08:10:32;43.20;;;30.20;;
53521;SDS011;39398;48.382;9.802;2023-05-16T08:15:35;36.13;;;25.98;;
53521;SDS011;39398;48.382;9.802;2023-05-16T08:20:37;35.67;;;21.77;;
53521;SDS011;39398;48.382;9.802;2023-05-16T08:25:39;41.38;;;27.95;;
53521;SDS011;39398;48.382;9.802;2023-05-16T08:30:42;40.60;;;24.08;;
53521;SDS011;39398;48.382;9.802;2023-05-16T08:35:49;38.10;;;27.42;;
53521;SDS011;39398;48.382;9.802;2023-05-16T08:40:51;37.03;;;24.85;;
53521;SDS011;39398;48.382;9.802;2023-05-16T08:45:54;44.25;;;27.67;;
53521;SDS011;39398;48.382;9.802;2023-05-16T08:50:55;42.70;;;29.88;;
53521;SDS011;39398;48.382;9.802;2023-05-16T08:55:58;36.95;;;22.45;;
53521;SDS011;39398;48.382;9.802;2023-05-16T09:01:03;39.33;;;26.00;;
53521;SDS011;39398;48.382;9.802;2023-05-16T09:06:05;40.85;;;27.15;;
53521;SDS011;39398;48.382;9.802;2023-05-16T09:11:08;42.15;;;28.73;;
53521;SDS011;39398;48.382;9.802;2023-05-16T09:16:12;45.25;;;31.10;;
53521;SDS011;39398;48.382;9.802;2023-05-16T09:21:14;34.67;;;23.42;;
53521;SDS011;39398;48.382;9.802;2023-05-16T09:26:17;43.88;;;34.70;;
53521;SDS011;39398;48.382;9.802;2023-05-16T09:31:20;30.45;;;20.13;;
53521;SDS011;39398;48.382;9.802;2023-05-16T09:36:24;37.92;;;21.98;;
53521;SDS011;39398;48.382;9.802;2023-05-16T09:41:26;42.15;;;27.88;;
53521;SDS011;39398;48.382;9.802;2023-05-16T09:46:29;46.22;;;29.90;;
53521;SDS011;39398;48.382;9.802;2023-05-16T09:51:31;48.33;;;31.77;;
53521;SDS011;39398;48.382;9.802;2023-05-16T09:56:32;35.78;;;24.23;;
53521;SDS011;39398;48.382;9.802;2023-05-16T10:01:35;44.85;;;23.98;;
53521;SDS011;39398;48.382;9.802;2023-05-16T10:06:37;54.78;;;34.92;;
53521;SDS011;39398;48.382;9.802;2023-05-16T10:11:40;47.47;;;29.17;;
53521;SDS011;39398;48.382;9.802;2023-05-16T10:16:45;45.58;;;33.83;;
53521;SDS011;39398;48.382;9.802;2023-05-16T10:21:50;42.40;;;25.05;;
53521;SDS011;39398;48.382;9.802;2023-05-16T10:26:54;39.28;;;26.00;;
53521;SDS011;39398;48.382;9.802;2023-05-16T10:31:58;41.47;;;22.83;;
53521;SDS011;39398;48.382;9.802;2023-05-16T10:36:59;44.63;;;31.42;;
53521;SDS011;39398;48.382;9.802;2023-05-16T10:42:02;43.03;;;32.03;;
53521;SDS011;39398;48.382;9.802;2023-05-16T10:47:05;33.15;;;20.45;;
53521;SDS011;39398;48.382;9.802;2023-05-16T10:52:07;31.52;;;19.85;;
53521;SDS011;39398;48.382;9.802;2023-05-16T10:57:11;31.83;;;21.83;;
53521;SDS011;39398;48.382;9.802;2023-05-16T11:02:22;30.77;;;20.73;;
53521;SDS011;39398;48.382;9.802;2023-05-16T11:07:29;28.70;;;21.70;;
53521;SDS011;39398;48.382;9.802;2023-05-16T11:12:36;27.48;;;18.25;;
53521;SDS011;39398;48.382;9.802;2023-05-16T11:17:50;26.65;;;17.02;;
53521;SDS011;39398;48.382;9.802;2023-05-16T11:23:19;28.95;;;22.38;;
53521;SDS011;39398;48.382;9.802;2023-05-16T11:28:22;25.17;;;18.05;;
53521;SDS011;39398;48.382;9.802;2023-05-16T11:33:26;23.05;;;19.77;;
53521;SDS011;39398;48.382;9.802;2023-05-16T11:38:32;18.73;;;13.73;;
53521;SDS011;39398;48.382;9.802;2023-05-16T11:43:38;18.38;;;11.40;;
53521;SDS011;39398;48.382;9.802;2023-05-16T11:48:42;18.20;;;14.00;;
53521;SDS011;39398;48.382;9.802;2023-05-16T11:53:45;21.83;;;17.10;;
53521;SDS011;39398;48.382;9.802;2023-05-16T11:58:47;21.38;;;15.25;;
53521;SDS011;39398;48.382;9.802;2023-05-16T12:03:56;17.80;;;13.02;;
53521;SDS011;39398;48.382;9.802;2023-05-16T12:08:58;18.65;;;13.80;;
53521;SDS011;39398;48.382;9.802;2023-05-16T12:14:00;25.98;;;19.45;;
53521;SDS011;39398;48.382;9.802;2023-05-16T12:19:04;23.48;;;16.90;;
53521;SDS011;39398;48.382;9.802;2023-05-16T12:24:08;22.13;;;17.85;;
53521;SDS011;39398;48.382;9.802;2023-05-16T12:29:10;19.23;;;14.38;;
53521;SDS011;39398;48.382;9.802;2023-05-16T12:34:17;23.13;;;18.17;;
53521;SDS011;39398;48.382;9.802;2023-05-16T12:39:20;21.15;;;15.23;;
53521;SDS011;39398;48.382;9.802;2023-05-16T12:44:22;22.67;;;18.35;;
53521;SDS011;39398;48.382;9.802;2023-05-16T12:49:25;16.80;;;11.88;;
53521;SDS011;39398;48.382;9.802;2023-05-16T12:54:26;18.65;;;11.50;;
53521;SDS011;39398;48.382;9.802;2023-05-16T12:59:28;20.52;;;14.55;;
53521;SDS011;39398;48.382;9.802;2023-05-16T13:04:31;22.23;;;15.57;;
53521;SDS011;39398;48.382;9.802;2023-05-16T13:09:33;19.80;;;14.82;;
53521;SDS011;39398;48.382;9.802;2023-05-16T13:14:34;15.80;;;10.70;;
53521;SDS011;39398;48.382;9.802;2023-05-16T13:19:37;20.85;;;13.98;;
53521;SDS011;39398;48.382;9.802;2023-05-16T13:24:39;17.45;;;12.80;;
53521;SDS011;39398;48.382;9.802;2023-05-16T13:29:40;23.77;;;17.20;;
53521;SDS011;39398;48.382;9.802;2023-05-16T13:34:43;22.95;;;17.60;;
53521;SDS011;39398;48.382;9.802;2023-05-16T13:39:45;17.88;;;14.93;;
53521;SDS011;39398;48.382;9.802;2023-05-16T13:44:47;21.33;;;15.48;;
53521;SDS011;39398;48.382;9.802;2023-05-16T13:49:50;20.75;;;16.52;;
53521;SDS011;39398;48.382;9.802;2023-05-16T13:54:51;16.50;;;11.13;;
53521;SDS011;39398;48.382;9.802;2023-05-16T13:59:53;18.33;;;12.77;;
53521;SDS011;39398;48.382;9.802;2023-05-16T14:04:59;17.10;;;12.30;;
53521;SDS011;39398;48.382;9.802;2023-05-16T14:10:00;19.52;;;14.43;;
53521;SDS011;39398;48.382;9.802;2023-05-16T14:15:02;22.17;;;14.93;;
53521;SDS011;39398;48.382;9.802;2023-05-16T14:20:06;23.13;;;16.70;;
53521;SDS011;39398;48.382;9.802;2023-05-16T14:25:08;23.50;;;19.88;;
53521;SDS011;39398;48.382;9.802;2023-05-16T14:30:10;21.40;;;17.33;;
53521;SDS011;39398;48.382;9.802;2023-05-16T14:35:14;18.52;;;11.95;;
53521;SDS011;39398;48.382;9.802;2023-05-16T14:40:16;19.15;;;12.65;;
53521;SDS011;39398;48.382;9.802;2023-05-16T14:45:17;20.30;;;14.60;;
53521;SDS011;39398;48.382;9.802;2023-05-16T14:50:21;25.92;;;19.20;;
53521;SDS011;39398;48.382;9.802;2023-05-16T14:55:22;24.50;;;16.10;;
53521;SDS011;39398;48.382;9.802;2023-05-16T15:00:24;19.92;;;14.00;;
53521;SDS011;39398;48.382;9.802;2023-05-16T15:05:28;22.55;;;17.02;;
53521;SDS011;39398;48.382;9.802;2023-05-16T15:10:30;21.25;;;14.07;;
53521;SDS011;39398;48.382;9.802;2023-05-16T15:15:31;22.65;;;14.13;;
53521;SDS011;39398;48.382;9.802;2023-05-16T15:20:34;21.63;;;12.15;;
53521;SDS011;39398;48.382;9.802;2023-05-16T15:25:36;19.33;;;13.40;;
53521;SDS011;39398;48.382;9.802;2023-05-16T15:30:37;19.67;;;13.73;;
53521;SDS011;39398;48.382;9.802;2023-05-16T15:35:40;16.85;;;12.40;;
53521;SDS011;39398;48.382;9.802;2023-05-16T15:40:50;13.63;;;8.68;;
53521;SDS011;39398;48.382;9.802;2023-05-16T15:46:12;17.13;;;10.07;;
53521;SDS011;39398;48.382;9.802;2023-05-16T15:51:13;13.50;;;10.90;;
53521;SDS011;39398;48.382;9.802;2023-05-16T15:56:16;16.48;;;10.07;;
53521;SDS011;39398;48.382;9.802;2023-05-16T16:01:18;12.85;;;8.13;;
53521;SDS011;39398;48.382;9.802;2023-05-16T16:06:20;13.98;;;9.25;;
53521;SDS011;39398;48.382;9.802;2023-05-16T16:11:24;11.20;;;8.15;;
53521;SDS011;39398;48.382;9.802;2023-05-16T16:16:27;12.63;;;9.13;;
53521;SDS011;39398;48.382;9.802;2023-05-16T16:21:28;11.55;;;8.63;;
53521;SDS011;39398;48.382;9.802;2023-05-16T16:26:31;10.52;;;7.80;;
53521;SDS011;39398;48.382;9.802;2023-05-16T16:31:33;11.95;;;8.93;;
53521;SDS011;39398;48.382;9.802;2023-05-16T16:36:35;8.02;;;6.65;;
53521;SDS011;39398;48.382;9.802;2023-05-16T16:41:38;8.52;;;7.13;;
53521;SDS011;39398;48.382;9.802;2023-05-16T16:46:39;10.18;;;6.50;;
53521;SDS011;39398;48.382;9.802;2023-05-16T16:51:41;7.30;;;5.90;;
53521;SDS011;39398;48.382;9.802;2023-05-16T16:56:44;7.40;;;6.53;;
53521;SDS011;39398;48.382;9.802;2023-05-16T17:01:46;6.00;;;5.40;;
53521;SDS011;39398;48.382;9.802;2023-05-16T17:06:48;8.52;;;6.10;;
53521;SDS011;39398;48.382;9.802;2023-05-16T17:11:51;4.25;;;3.70;;
53521;SDS011;39398;48.382;9.802;2023-05-16T17:16:52;7.68;;;6.03;;
53521;SDS011;39398;48.382;9.802;2023-05-16T17:21:54;5.82;;;4.22;;
53521;SDS011;39398;48.382;9.802;2023-05-16T17:26:57;3.90;;;3.10;;
53521;SDS011;39398;48.382;9.802;2023-05-16T17:31:59;5.30;;;4.25;;
53521;SDS011;39398;48.382;9.802;2023-05-16T17:37:00;4.63;;;3.35;;
53521;SDS011;39398;48.382;9.802;2023-05-16T17:42:03;5.70;;;4.50;;
53521;SDS011;39398;48.382;9.802;2023-05-16T17:47:05;4.22;;;3.67;;
53521;SDS011;39398;48.382;9.802;2023-05-16T17:52:07;7.03;;;3.45;;
53521;SDS011;39398;48.382;9.802;2023-05-16T17:57:10;5.13;;;3.33;;
53521;SDS011;39398;48.382;9.802;2023-05-16T18:02:12;5.35;;;3.90;;
53521;SDS011;39398;48.382;9.802;2023-05-16T18:07:13;4.95;;;3.42;;
53521;SDS011;39398;48.382;9.802;2023-05-16T18:12:16;10.23;;;3.50;;
53521;SDS011;39398;48.382;9.802;2023-05-16T18:17:18;8.93;;;3.53;;
53521;SDS011;39398;48.382;9.802;2023-05-16T18:22:20;8.90;;;3.33;;
53521;SDS011;39398;48.382;9.802;2023-05-16T18:27:23;7.10;;;3.63;;
53521;SDS011;39398;48.382;9.802;2023-05-16T18:32:24;7.47;;;3.08;;
53521;SDS011;39398;48.382;9.802;2023-05-16T18:37:26;3.15;;;2.03;;
53521;SDS011;39398;48.382;9.802;2023-05-16T18:42:29;7.75;;;2.70;;
53521;SDS011;39398;48.382;9.802;2023-05-16T18:47:31;8.43;;;3.45;;
53521;SDS011;39398;48.382;9.802;2023-05-16T18:52:33;5.30;;;2.60;;
53521;SDS011;39398;48.382;9.802;2023-05-16T18:57:36;8.07;;;2.60;;
53521;SDS011;39398;48.382;9.802;2023-05-16T19:02:37;4.85;;;2.75;;
53521;SDS011;39398;48.382;9.802;2023-05-16T19:07:43;5.10;;;2.80;;
53521;SDS011;39398;48.382;9.802;2023-05-16T19:12:46;8.35;;;3.17;;
53521;SDS011;39398;48.382;9.802;2023-05-16T19:17:47;6.85;;;2.33;;
53521;SDS011;39398;48.382;9.802;2023-05-16T19:22:49;8.85;;;2.78;;
53521;SDS011;39398;48.382;9.802;2023-05-16T19:27:52;5.90;;;2.63;;
53521;SDS011;39398;48.382;9.802;2023-05-16T19:32:54;7.38;;;3.08;;
53521;SDS011;39398;48.382;9.802;2023-05-16T19:37:56;5.53;;;2.30;;
53521;SDS011;39398;48.382;9.802;2023-05-16T19:42:59;6.43;;;2.90;;
53521;SDS011;39398;48.382;9.802;2023-05-16T19:48:00;8.73;;;3.28;;
53521;SDS011;39398;48.382;9.802;2023-05-16T19:53:02;5.45;;;2.15;;
53521;SDS011;39398;48.382;9.802;2023-05-16T19:58:05;6.53;;;2.53;;
53521;SDS011;39398;48.382;9.802;2023-05-16T20:03:07;9.18;;;2.28;;
53521;SDS011;39398;48.382;9.802;2023-05-16T20:08:09;7.30;;;2.63;;
53521;SDS011;39398;48.382;9.802;2023-05-16T20:13:14;6.25;;;1.80;;
53521;SDS011;39398;48.382;9.802;2023-05-16T20:18:15;9.02;;;3.13;;
53521;SDS011;39398;48.382;9.802;2023-05-16T20:23:17;8.07;;;2.20;;
53521;SDS011;39398;48.382;9.802;2023-05-16T20:28:20;3.80;;;2.58;;
53521;SDS011;39398;48.382;9.802;2023-05-16T20:33:22;3.60;;;2.20;;
53521;SDS011;39398;48.382;9.802;2023-05-16T20:38:23;4.93;;;2.00;;
53521;SDS011;39398;48.382;9.802;2023-05-16T20:43:26;6.78;;;2.53;;
53521;SDS011;39398;48.382;9.802;2023-05-16T20:48:28;4.90;;;2.20;;
53521;SDS011;39398;48.382;9.802;2023-05-16T20:53:30;4.65;;;2.25;;
53521;SDS011;39398;48.382;9.802;2023-05-16T20:58:33;5.70;;;2.50;;
53521;SDS011;39398;48.382;9.802;2023-05-16T21:03:35;5.85;;;2.03;;
53521;SDS011;39398;48.382;9.802;2023-05-16T21:08:36;6.90;;;2.63;;
53521;SDS011;39398;48.382;9.802;2023-05-16T21:13:39;7.28;;;2.75;;
53521;SDS011;39398;48.382;9.802;2023-05-16T21:18:41;4.70;;;2.22;;
53521;SDS011;39398;48.382;9.802;2023-05-16T21:23:43;3.60;;;1.90;;
53521;SDS011;39398;48.382;9.802;2023-05-16T21:28:46;3.92;;;2.10;;
53521;SDS011;39398;48.382;9.802;2023-05-16T21:33:55;5.57;;;2.40;;
53521;SDS011;39398;48.382;9.802;2023-05-16T21:38:57;4.72;;;2.35;;
53521;SDS011;39398;48.382;9.802;2023-05-16T21:44:00;3.55;;;2.22;;
53521;SDS011;39398;48.382;9.802;2023-05-16T21:49:01;3.78;;;2.20;;
53521;SDS011;39398;48.382;9.802;2023-05-16T21:54:03;5.75;;;2.17;;
53521;SDS011;39398;48.382;9.802;2023-05-16T21:59:06;6.85;;;2.00;;
53521;SDS011;39398;48.382;9.802;2023-05-16T22:04:08;7.93;;;2.30;;
53521;SDS011;39398;48.382;9.802;2023-05-16T22:09:10;9.38;;;1.73;;
53521;SDS011;39398;48.382;9.802;2023-05-16T22:14:13;4.85;;;2.00;;
53521;SDS011;39398;48.382;9.802;2023-05-16T22:19:14;6.18;;;1.95;;
53521;SDS011;39398;48.382;9.802;2023-05-16T22:24:16;4.05;;;1.77;;
53521;SDS011;39398;48.382;9.802;2023-05-16T22:29:19;5.50;;;1.88;;
53521;SDS011;39398;48.382;9.802;2023-05-16T22:34:21;5.32;;;2.15;;
53521;SDS011;39398;48.382;9.802;2023-05-16T22:39:22;3.40;;;1.50;;
53521;SDS011;39398;48.382;9.802;2023-05-16T22:44:25;2.15;;;1.33;;
53521;SDS011;39398;48.382;9.802;2023-05-16T22:49:27;6.85;;;1.98;;
53521;SDS011;39398;48.382;9.802;2023-05-16T22:54:29;7.00;;;2.05;;
53521;SDS011;39398;48.382;9.802;2023-05-16T22:59:32;2.28;;;1.63;;
53521;SDS011;39398;48.382;9.802;2023-05-16T23:04:34;4.82;;;1.42;;
53521;SDS011;39398;48.382;9.802;2023-05-16T23:09:35;2.40;;;1.27;;
53521;SDS011;39398;48.382;9.802;2023-05-16T23:14:38;3.40;;;1.80;;
53521;SDS011;39398;48.382;9.802;2023-05-16T23:19:40;2.85;;;1.58;;
53521;SDS011;39398;48.382;9.802;2023-05-16T23:24:42;5.90;;;1.50;;
53521;SDS011;39398;48.382;9.802;2023-05-16T23:29:45;1.10;;;1.00;;
53521;SDS011;39398;48.382;9.802;2023-05-16T23:34:46;2.38;;;1.35;;
53521;SDS011;39398;48.382;9.802;2023-05-16T23:39:48;3.83;;;1.45;;
53521;SDS011;39398;48.382;9.802;2023-05-16T23:44:51;4.78;;;1.83;;
53521;SDS011;39398;48.382;9.802;2023-05-16T23:49:52;2.50;;;1.70;;
53521;SDS011;39398;48.382;9.802;2023-05-16T23:54:54;5.07;;;1.40;;
53521;SDS011;39398;48.382;9.802;2023-05-16T23:59:57;3.97;;;2.00;;
